Time;durP1;ratioP1;P1;durP2;ratioP2;P2;SDS_P1;SDS_P2;PMS_P1;PMS_P2;Temp;Humidity;BMP_temperature;BMP_pressure;BME280_temperature;BME280_humidity;BME280_pressure;Samples;Min_cycle;Max_cycle;Signal;HPM_P1;HPM_P2
2021/07/27 00:03:12;;;;;;;4.83;3.00;;;21.10;42.30;;;;;;10457101;28;20232;-72
2021/07/27 00:08:17;;;;;;;4.10;3.30;;;21.00;42.30;;;;;;10464309;28;20228;-72
2021/07/27 00:13:20;;;;;;;6.03;2.97;;;20.90;42.90;;;;;;10458468;28;20233;-72
2021/07/27 00:18:23;;;;;;;3.90;2.70;;;20.80;42.40;;;;;;10456100;28;20233;-73
2021/07/27 00:23:28;;;;;;;4.93;2.77;;;20.80;42.80;;;;;;10461579;28;20637;-72
2021/07/27 00:28:31;;;;;;;5.00;2.70;;;20.80;43.30;;;;;;10461276;28;20221;-73
2021/07/27 00:33:34;;;;;;;2.63;2.43;;;20.80;43.00;;;;;;10458160;28;20708;-72
2021/07/27 00:38:39;;;;;;;4.87;2.90;;;20.80;42.90;;;;;;10459855;28;20221;-72
2021/07/27 00:43:42;;;;;;;5.83;2.47;;;20.80;43.40;;;;;;10461060;28;20240;-72
2021/07/27 00:48:46;;;;;;;2.57;2.23;;;20.80;42.90;;;;;;10457272;28;20246;-72
2021/07/27 00:53:50;;;;;;;5.13;2.73;;;20.90;42.90;;;;;;10459495;28;20700;-72
2021/07/27 00:58:54;;;;;;;3.37;2.40;;;20.90;43.00;;;;;;10460560;28;20758;-72
2021/07/27 01:03:57;;;;;;;6.03;2.30;;;20.90;42.80;;;;;;10454631;28;20237;-72
2021/07/27 01:09:02;;;;;;;5.43;2.40;;;20.90;42.60;;;;;;10458194;28;20244;-70
2021/07/27 01:14:05;;;;;;;8.40;2.60;;;20.90;42.80;;;;;;10459964;28;20232;-70
2021/07/27 01:19:26;;;;;;;3.83;2.43;;;21.00;42.90;;;;;;10459665;28;20278;-70
2021/07/27 01:40:43;;;;;;;3.67;2.37;;;20.80;42.60;;;;;;10456294;28;21080;-73
2021/07/27 01:45:46;;;;;;;5.17;2.30;;;20.90;43.00;;;;;;10454629;28;20225;-72
2021/07/27 01:50:50;;;;;;;4.50;2.50;;;20.80;42.60;;;;;;10454593;28;20647;-73
2021/07/27 01:55:56;;;;;;;3.70;2.60;;;20.70;42.60;;;;;;10459335;28;20254;-73
2021/07/27 02:00:59;;;;;;;4.30;2.90;;;20.70;43.00;;;;;;10458408;28;20229;-72
2021/07/27 02:06:02;;;;;;;5.77;2.50;;;20.70;42.90;;;;;;10456894;28;20309;-73
2021/07/27 02:11:11;;;;;;;6.27;2.60;;;20.70;42.60;;;;;;10458355;28;20938;-72
2021/07/27 02:16:14;;;;;;;6.00;2.90;;;20.60;42.90;;;;;;10454150;28;20729;-73
2021/07/27 02:21:18;;;;;;;3.67;2.43;;;20.60;42.90;;;;;;10457558;28;20228;-73
2021/07/27 02:26:22;;;;;;;3.77;2.47;;;20.60;42.80;;;;;;10459022;28;20239;-73
2021/07/27 02:31:31;;;;;;;3.97;2.20;;;20.60;42.60;;;;;;10458394;28;20239;-73
2021/07/27 02:36:35;;;;;;;5.47;2.67;;;20.50;42.60;;;;;;10458217;28;20247;-72
2021/07/27 02:41:39;;;;;;;2.80;2.60;;;20.50;42.80;;;;;;10465648;28;21528;-72
2021/07/27 02:46:42;;;;;;;4.63;2.30;;;20.50;43.00;;;;;;10458826;28;20228;-72
2021/07/27 02:51:49;;;;;;;2.70;2.20;;;20.40;42.70;;;;;;10460032;28;20224;-73
2021/07/27 02:56:55;;;;;;;4.87;2.90;;;20.40;43.10;;;;;;10462673;28;20259;-72
2021/07/27 03:01:58;;;;;;;2.83;2.23;;;20.40;43.70;;;;;;10464999;28;20220;-72
2021/07/27 03:07:03;;;;;;;5.10;2.10;;;20.30;42.70;;;;;;10469050;28;20233;-73
2021/07/27 03:12:07;;;;;;;4.23;2.90;;;20.30;43.00;;;;;;10463519;28;20228;-72
2021/07/27 03:17:11;;;;;;;2.73;2.53;;;20.30;43.50;;;;;;10459508;28;21362;-73
2021/07/27 03:22:14;;;;;;;5.80;2.57;;;20.30;43.20;;;;;;10465645;28;20236;-73
2021/07/27 03:27:18;;;;;;;4.27;2.30;;;20.20;43.00;;;;;;10466533;28;20220;-72
2021/07/27 03:32:22;;;;;;;4.20;2.30;;;20.20;43.10;;;;;;10462923;28;20240;-72
2021/07/27 03:37:25;;;;;;;3.47;2.53;;;20.30;43.00;;;;;;10463356;28;20255;-72
2021/07/27 03:42:30;;;;;;;3.77;2.67;;;20.20;43.10;;;;;;10461829;28;20286;-72
2021/07/27 03:47:33;;;;;;;3.27;2.93;;;20.10;43.30;;;;;;10453399;28;20220;-72
2021/07/27 03:52:36;;;;;;;3.10;2.90;;;20.10;43.30;;;;;;10457038;28;20232;-72
2021/07/27 03:57:41;;;;;;;3.73;2.90;;;20.10;43.10;;;;;;10456983;28;20227;-72
2021/07/27 04:02:44;;;;;;;2.43;2.23;;;20.00;43.30;;;;;;10458680;28;20224;-72
2021/07/27 04:07:47;;;;;;;2.47;2.27;;;19.90;43.20;;;;;;10460400;28;20675;-72
2021/07/27 04:12:52;;;;;;;3.13;2.30;;;19.90;43.40;;;;;;10459587;28;20582;-72
2021/07/27 04:17:55;;;;;;;5.70;3.17;;;19.80;43.70;;;;;;10455211;28;20229;-72
2021/07/27 04:23:00;;;;;;;2.53;2.30;;;19.90;43.60;;;;;;10450459;28;20619;-72
2021/07/27 04:28:05;;;;;;;4.53;2.90;;;19.80;43.50;;;;;;10453279;28;20217;-72
2021/07/27 04:33:08;;;;;;;5.20;2.83;;;19.80;43.80;;;;;;10458850;28;20240;-72
2021/07/27 04:38:11;;;;;;;4.37;2.83;;;19.80;43.60;;;;;;10456086;28;20233;-72
2021/07/27 04:43:16;;;;;;;4.17;2.50;;;19.70;43.70;;;;;;10460258;28;20225;-72
2021/07/27 04:48:20;;;;;;;5.83;2.70;;;19.80;44.10;;;;;;10453547;28;20221;-72
2021/07/27 04:53:23;;;;;;;5.17;2.90;;;19.70;43.80;;;;;;10459202;28;20316;-72
2021/07/27 04:58:28;;;;;;;4.73;2.80;;;19.80;43.90;;;;;;10456805;28;20221;-72
2021/07/27 05:03:31;;;;;;;3.20;2.53;;;19.80;44.10;;;;;;10455664;28;20234;-72
2021/07/27 05:08:35;;;;;;;4.93;2.73;;;19.80;44.10;;;;;;10455841;28;20311;-72
2021/07/27 05:13:39;;;;;;;5.07;2.93;;;19.80;44.20;;;;;;10461565;28;20235;-73
2021/07/27 05:18:42;;;;;;;4.03;2.90;;;19.80;44.80;;;;;;10454830;28;20239;-73
2021/07/27 05:23:46;;;;;;;3.23;2.73;;;19.80;44.60;;;;;;10443991;28;20705;-73
2021/07/27 05:28:50;;;;;;;3.00;2.80;;;19.80;44.70;;;;;;10457844;28;20599;-73
2021/07/27 05:33:53;;;;;;;3.63;2.80;;;19.90;45.40;;;;;;10455084;28;20237;-73
2021/07/27 05:38:56;;;;;;;3.43;3.10;;;19.90;45.20;;;;;;10457414;28;20286;-72
2021/07/27 05:44:01;;;;;;;5.43;3.37;;;20.00;45.50;;;;;;10459196;28;20239;-72
2021/07/27 05:49:08;;;;;;;4.20;3.43;;;20.10;46.30;;;;;;10449806;28;20231;-72
2021/07/27 05:54:12;;;;;;;3.60;3.27;;;20.20;46.00;;;;;;10454054;28;20224;-74
2021/07/27 05:59:17;;;;;;;4.00;3.70;;;20.30;46.40;;;;;;10451787;28;20232;-74
2021/07/27 06:04:20;;;;;;;3.50;3.20;;;20.40;47.50;;;;;;10449177;28;20732;-74
2021/07/27 06:09:23;;;;;;;4.60;3.70;;;20.60;47.20;;;;;;10453518;28;20227;-74
2021/07/27 06:14:28;;;;;;;3.90;3.60;;;20.70;47.80;;;;;;10454823;28;20709;-74
2021/07/27 06:19:31;;;;;;;3.93;3.63;;;20.90;48.10;;;;;;10450833;28;20373;-74
2021/07/27 06:24:35;;;;;;;4.37;3.97;;;21.00;47.10;;;;;;10453881;28;20641;-74
2021/07/27 06:29:39;;;;;;;4.27;3.87;;;21.10;47.30;;;;;;10447011;28;20823;-74
2021/07/27 06:34:44;;;;;;;4.00;3.70;;;21.30;48.20;;;;;;10453493;28;20233;-73
2021/07/27 06:39:47;;;;;;;4.87;3.87;;;21.40;47.60;;;;;;10450854;28;20627;-73
2021/07/27 06:44:52;;;;;;;4.37;3.97;;;21.50;47.40;;;;;;10456659;28;20228;-74
2021/07/27 06:49:55;;;;;;;4.83;4.03;;;21.60;47.60;;;;;;10454921;28;20232;-74
2021/07/27 06:54:58;;;;;;;5.50;3.60;;;21.70;48.70;;;;;;10463823;28;20229;-74
2021/07/27 07:00:03;;;;;;;4.30;3.90;;;21.90;47.60;;;;;;10457802;28;20225;-74
2021/07/27 07:05:08;;;;;;;3.73;3.43;;;22.00;48.10;;;;;;10453126;28;20235;-73
2021/07/27 07:10:12;;;;;;;4.10;3.70;;;22.20;47.50;;;;;;10455531;28;20227;-70
2021/07/27 07:15:16;;;;;;;4.30;3.90;;;22.30;47.20;;;;;;10457387;28;20237;-70
2021/07/27 07:20:20;;;;;;;4.20;3.80;;;22.40;47.60;;;;;;10452800;28;20232;-70
2021/07/27 07:25:23;;;;;;;4.20;3.90;;;22.50;47.40;;;;;;10456640;28;20225;-70
2021/07/27 07:30:28;;;;;;;4.63;4.23;;;22.70;47.20;;;;;;10458614;28;20224;-70
2021/07/27 07:35:32;;;;;;;4.20;3.90;;;22.80;47.30;;;;;;10458565;28;20225;-70
2021/07/27 07:40:35;;;;;;;5.30;4.43;;;22.90;47.50;;;;;;10461676;28;20228;-76
2021/07/27 07:45:40;;;;;;;6.00;3.90;;;23.10;47.00;;;;;;10471008;28;20234;-76
2021/07/27 07:50:43;;;;;;;4.23;3.83;;;23.30;47.30;;;;;;10467989;28;20239;-76
2021/07/27 07:55:46;;;;;;;6.33;4.10;;;23.40;46.70;;;;;;10471126;28;20223;-76
2021/07/27 08:00:51;;;;;;;4.70;4.30;;;23.60;46.40;;;;;;10475314;28;20221;-76
2021/07/27 08:05:56;;;;;;;5.50;4.00;;;23.70;46.40;;;;;;10464453;28;20741;-76
2021/07/27 08:10:59;;;;;;;4.13;3.73;;;23.90;45.70;;;;;;10463099;28;20228;-76
2021/07/27 08:16:08;;;;;;;4.33;3.93;;;24.10;46.00;;;;;;10467853;28;20228;-75
2021/07/27 08:21:12;;;;;;;4.13;3.83;;;24.30;45.60;;;;;;10462439;28;20232;-76
2021/07/27 08:26:15;;;;;;;4.83;4.20;;;24.50;46.10;;;;;;10464819;28;20225;-76
2021/07/27 08:31:21;;;;;;;4.80;4.40;;;24.80;45.40;;;;;;10463448;28;20221;-76
2021/07/27 08:36:24;;;;;;;4.33;4.03;;;25.00;44.70;;;;;;10462453;28;20239;-76
2021/07/27 08:41:29;;;;;;;3.97;3.67;;;25.20;44.60;;;;;;10464866;28;20226;-76
2021/07/27 08:46:34;;;;;;;4.40;4.00;;;25.40;43.70;;;;;;10455190;28;21094;-74
2021/07/27 08:51:39;;;;;;;4.30;3.93;;;25.50;43.50;;;;;;10453287;28;20310;-73
2021/07/27 08:56:46;;;;;;;5.27;4.50;;;25.70;43.30;;;;;;10453634;28;20227;-74
2021/07/27 09:01:52;;;;;;;4.00;3.60;;;25.90;42.20;;;;;;10456114;28;20252;-74
2021/07/27 09:06:59;;;;;;;4.13;3.83;;;26.10;41.90;;;;;;10454865;28;20716;-74
2021/07/27 09:12:06;;;;;;;4.47;4.17;;;26.30;41.80;;;;;;10456536;28;20739;-73
2021/07/27 09:17:11;;;;;;;3.80;3.47;;;26.40;41.80;;;;;;10455865;28;20229;-74
2021/07/27 09:22:14;;;;;;;4.00;3.70;;;26.50;41.90;;;;;;10458655;28;20293;-73
2021/07/27 09:27:27;;;;;;;3.70;3.40;;;26.60;42.00;;;;;;10454563;28;20231;-74
2021/07/27 09:32:32;;;;;;;6.47;3.90;;;26.80;40.40;;;;;;10459421;28;20704;-74
2021/07/27 09:37:36;;;;;;;4.10;3.80;;;27.00;40.50;;;;;;10453233;28;20257;-74
2021/07/27 09:42:40;;;;;;;4.33;3.93;;;27.10;40.90;;;;;;10455533;28;20845;-74
2021/07/27 09:47:48;;;;;;;3.50;3.30;;;27.20;39.80;;;;;;10450888;28;20231;-74
2021/07/27 09:52:51;;;;;;;4.37;4.07;;;27.40;39.20;;;;;;10451193;28;20235;-74
2021/07/27 09:57:54;;;;;;;4.20;3.90;;;27.60;39.30;;;;;;10454205;28;20225;-74
2021/07/27 10:03:01;;;;;;;4.07;3.77;;;27.70;38.90;;;;;;10450770;28;20699;-74
2021/07/27 10:08:04;;;;;;;4.07;3.77;;;27.70;37.10;;;;;;10451961;28;20740;-74
2021/07/27 10:13:09;;;;;;;4.00;3.70;;;27.70;38.10;;;;;;10455177;28;20224;-74
2021/07/27 10:18:15;;;;;;;3.57;3.37;;;27.70;38.50;;;;;;10452429;28;20224;-73
2021/07/27 10:23:20;;;;;;;4.30;3.90;;;27.90;37.30;;;;;;10451854;28;20225;-74
2021/07/27 10:28:24;;;;;;;4.33;3.83;;;28.10;37.00;;;;;;10452165;28;20244;-73
2021/07/27 10:33:29;;;;;;;4.50;4.10;;;28.20;37.00;;;;;;10447213;28;20231;-74
2021/07/27 10:38:38;;;;;;;4.20;3.90;;;28.40;35.60;;;;;;10449330;28;20233;-74
2021/07/27 10:43:42;;;;;;;4.07;3.77;;;28.60;35.20;;;;;;10448329;28;20260;-74
2021/07/27 10:48:49;;;;;;;4.03;3.73;;;28.70;36.70;;;;;;10446209;28;20597;-74
2021/07/27 10:53:53;;;;;;;3.60;3.40;;;28.80;36.40;;;;;;10450590;28;20840;-74
2021/07/27 10:58:57;;;;;;;4.20;3.90;;;28.90;35.70;;;;;;10451826;28;20243;-74
2021/07/27 11:04:13;;;;;;;4.30;4.00;;;29.00;35.50;;;;;;10462437;28;20239;-74
2021/07/27 11:09:17;;;;;;;4.00;3.70;;;29.10;35.20;;;;;;10455651;28;20220;-74
2021/07/27 11:14:24;;;;;;;4.00;3.70;;;29.30;34.20;;;;;;10462188;28;20239;-73
2021/07/27 11:19:32;;;;;;;3.70;3.40;;;29.40;32.40;;;;;;10460489;28;20224;-73
2021/07/27 11:24:36;;;;;;;3.77;3.57;;;29.40;31.20;;;;;;10460179;28;20278;-73
2021/07/27 11:29:39;;;;;;;4.00;3.70;;;29.40;32.20;;;;;;10455163;28;20228;-74
2021/07/27 11:34:43;;;;;;;5.30;3.70;;;29.30;32.60;;;;;;10453341;28;20224;-74
2021/07/27 11:39:47;;;;;;;3.90;3.60;;;29.40;31.70;;;;;;10458355;28;20227;-74
2021/07/27 11:44:50;;;;;;;3.50;3.13;;;29.40;32.70;;;;;;10461745;28;20239;-74
2021/07/27 11:50:02;;;;;;;5.63;3.90;;;29.60;32.70;;;;;;10458361;28;20217;-74
2021/07/27 11:55:07;;;;;;;4.23;3.93;;;29.70;31.30;;;;;;10457808;28;20321;-73
2021/07/27 12:00:11;;;;;;;3.70;3.50;;;29.90;31.50;;;;;;10461273;28;20226;-73
2021/07/27 12:05:16;;;;;;;3.70;3.43;;;30.00;31.50;;;;;;10462866;28;20235;-73
2021/07/27 12:10:19;;;;;;;4.10;3.80;;;30.10;31.60;;;;;;10456453;28;20715;-73
2021/07/27 12:15:23;;;;;;;3.73;3.43;;;30.20;31.70;;;;;;10455095;28;20311;-74
2021/07/27 12:20:27;;;;;;;3.80;3.47;;;30.30;31.80;;;;;;10449079;28;20888;-74
2021/07/27 12:25:34;;;;;;;3.90;3.60;;;30.40;30.90;;;;;;10457801;28;20603;-74
2021/07/27 12:30:37;;;;;;;3.77;3.47;;;30.60;29.70;;;;;;10453982;28;20594;-74
2021/07/27 12:35:42;;;;;;;3.80;3.50;;;30.60;31.10;;;;;;10451345;28;20620;-74
2021/07/27 12:40:45;;;;;;;3.40;3.20;;;30.60;30.30;;;;;;10456099;28;20226;-74
2021/07/27 12:45:48;;;;;;;3.90;3.60;;;30.60;31.00;;;;;;10452266;28;20243;-73
2021/07/27 12:50:53;;;;;;;4.10;3.80;;;30.70;30.40;;;;;;10452088;28;20227;-74
2021/07/27 12:55:58;;;;;;;3.80;3.50;;;30.70;29.60;;;;;;10455901;28;20744;-74
2021/07/27 13:01:01;;;;;;;3.77;3.47;;;30.60;30.10;;;;;;10453710;28;20220;-73
2021/07/27 13:06:07;;;;;;;3.40;3.20;;;30.60;30.10;;;;;;10455223;28;20228;-73
2021/07/27 13:11:11;;;;;;;3.63;3.30;;;30.50;29.90;;;;;;10456421;28;20243;-74
2021/07/27 13:16:16;;;;;;;3.70;3.50;;;30.40;30.10;;;;;;10461299;28;20228;-73
2021/07/27 13:21:21;;;;;;;3.70;3.40;;;30.40;29.80;;;;;;10451142;28;20257;-73
2021/07/27 13:26:24;;;;;;;4.20;3.47;;;30.40;29.40;;;;;;10457972;28;20240;-73
2021/07/27 13:31:27;;;;;;;3.50;3.20;;;30.40;29.80;;;;;;10453734;28;20233;-74
2021/07/27 13:36:32;;;;;;;3.83;3.53;;;30.40;30.00;;;;;;10457475;28;20601;-73
2021/07/27 13:41:35;;;;;;;4.47;4.07;;;30.50;29.00;;;;;;10457962;28;20231;-73
2021/07/27 13:46:38;;;;;;;3.60;3.37;;;30.60;29.50;;;;;;10450961;28;20224;-74
2021/07/27 13:51:43;;;;;;;3.70;3.40;;;30.50;29.30;;;;;;10452832;28;20232;-73
2021/07/27 13:56:46;;;;;;;3.73;3.43;;;30.50;28.90;;;;;;10457165;28;20229;-73
2021/07/27 14:01:49;;;;;;;3.80;3.50;;;30.40;29.30;;;;;;10455277;28;20618;-74
2021/07/27 14:06:55;;;;;;;3.57;3.27;;;30.40;29.20;;;;;;10446370;28;20232;-74
2021/07/27 14:11:58;;;;;;;3.60;3.30;;;30.40;28.80;;;;;;10446061;28;20228;-73
2021/07/27 14:17:01;;;;;;;3.83;3.47;;;30.50;29.30;;;;;;10453315;28;20590;-74
2021/07/27 14:22:06;;;;;;;3.67;3.40;;;30.60;29.40;;;;;;10449879;28;20686;-73
2021/07/27 14:27:11;;;;;;;3.40;3.20;;;30.70;28.60;;;;;;10448132;28;20236;-73
2021/07/27 14:32:14;;;;;;;3.90;3.60;;;30.70;28.40;;;;;;10456685;28;20637;-73
2021/07/27 14:37:19;;;;;;;3.70;3.40;;;30.80;28.50;;;;;;10462600;28;20231;-74
2021/07/27 14:42:22;;;;;;;3.50;3.20;;;30.80;28.10;;;;;;10463626;28;20241;-74
2021/07/27 14:47:26;;;;;;;3.40;3.10;;;30.80;28.80;;;;;;10458637;28;20270;-74
2021/07/27 14:52:30;;;;;;;3.20;3.00;;;30.80;28.10;;;;;;10461819;28;20232;-74
2021/07/27 14:57:35;;;;;;;3.20;2.90;;;30.80;27.60;;;;;;10458948;28;20308;-73
2021/07/27 15:02:38;;;;;;;3.77;3.47;;;30.90;27.70;;;;;;10458747;28;20238;-73
2021/07/27 15:07:43;;;;;;;3.53;3.23;;;31.00;27.50;;;;;;10460714;28;20275;-74
2021/07/27 15:12:46;;;;;;;3.10;2.90;;;31.00;26.90;;;;;;10460133;28;20224;-74
2021/07/27 15:17:50;;;;;;;3.40;3.20;;;31.10;27.30;;;;;;10460140;28;20321;-74
2021/07/27 15:22:55;;;;;;;3.97;3.57;;;31.10;27.00;;;;;;10465106;28;20251;-74
2021/07/27 15:27:59;;;;;;;3.20;3.00;;;31.10;26.30;;;;;;10453696;28;20301;-74
2021/07/27 15:33:02;;;;;;;3.67;3.37;;;31.20;26.70;;;;;;10452293;28;20229;-73
2021/07/27 15:38:09;;;;;;;3.30;3.10;;;31.20;26.90;;;;;;10456822;28;20225;-73
2021/07/27 15:43:13;;;;;;;3.80;3.50;;;31.20;26.20;;;;;;10452590;28;20764;-74
2021/07/27 15:48:16;;;;;;;3.43;3.13;;;31.20;26.60;;;;;;10453364;28;20776;-73
2021/07/27 15:53:21;;;;;;;3.30;3.10;;;31.30;27.20;;;;;;10449732;28;20720;-74
2021/07/27 15:58:24;;;;;;;3.50;3.20;;;31.30;26.10;;;;;;10448281;28;20224;-74
2021/07/27 16:03:27;;;;;;;3.53;3.27;;;31.30;26.70;;;;;;10448553;28;20733;-73
2021/07/27 16:08:32;;;;;;;3.30;3.00;;;31.20;26.70;;;;;;10456799;28;20235;-73
2021/07/27 16:13:35;;;;;;;3.43;3.03;;;31.20;25.90;;;;;;10455463;28;20255;-73
2021/07/27 16:18:39;;;;;;;3.77;3.57;;;31.20;26.50;;;;;;10452143;28;20243;-73
2021/07/27 16:23:44;;;;;;;3.60;3.30;;;31.20;26.30;;;;;;10456345;28;20239;-73
2021/07/27 16:28:48;;;;;;;4.13;3.17;;;31.20;25.50;;;;;;10459331;28;20691;-74
2021/07/27 16:33:51;;;;;;;3.60;3.40;;;31.20;26.00;;;;;;10456383;28;20228;-74
2021/07/27 16:38:56;;;;;;;3.40;3.10;;;31.20;25.90;;;;;;10454968;28;20804;-73
2021/07/27 16:43:59;;;;;;;3.60;3.30;;;31.20;25.60;;;;;;10454495;28;20239;-74
2021/07/27 16:49:03;;;;;;;3.30;3.10;;;31.20;25.80;;;;;;10454100;28;20689;-73
2021/07/27 16:54:08;;;;;;;3.47;3.27;;;31.20;25.70;;;;;;10463087;28;20232;-77
2021/07/27 16:59:11;;;;;;;3.50;3.30;;;31.20;25.70;;;;;;10470345;28;20604;-77
2021/07/27 17:04:14;;;;;;;3.80;3.50;;;31.20;26.00;;;;;;10459330;28;20225;-68
2021/07/27 17:09:28;;;;;;;3.50;3.20;;;31.20;25.90;;;;;;10455423;28;20236;-68
2021/07/27 17:14:32;;;;;;;3.83;3.10;;;31.20;25.40;;;;;;10451189;28;20765;-68
2021/07/27 17:19:52;;;;;;;3.60;3.40;;;31.10;25.70;;;;;;10449956;28;20229;-71
2021/07/27 17:24:57;;;;;;;3.57;3.27;;;31.00;25.80;;;;;;10454907;28;20227;-68
2021/07/27 17:30:00;;;;;;;3.73;3.50;;;31.00;25.70;;;;;;10447873;28;20257;-68
2021/07/27 17:35:04;;;;;;;3.60;3.40;;;31.00;25.90;;;;;;10459936;28;20270;-71
2021/07/27 17:40:10;;;;;;;3.10;2.90;;;31.00;25.90;;;;;;10455308;28;20228;-71
2021/07/27 17:45:13;;;;;;;3.80;3.50;;;31.00;25.50;;;;;;10453647;28;20225;-71
2021/07/27 17:50:17;;;;;;;3.77;3.47;;;31.00;26.20;;;;;;10448550;28;20268;-71
2021/07/27 17:55:21;;;;;;;3.60;3.30;;;31.00;26.20;;;;;;10448828;28;20248;-71
2021/07/27 18:00:24;;;;;;;3.60;3.30;;;30.90;26.10;;;;;;10438052;28;20231;-71
2021/07/27 18:05:28;;;;;;;3.67;3.47;;;30.80;26.20;;;;;;10450648;28;21090;-71
2021/07/27 18:10:34;;;;;;;3.43;3.23;;;30.70;26.20;;;;;;10447329;28;20235;-71
2021/07/27 18:15:39;;;;;;;3.70;3.40;;;30.60;26.20;;;;;;10431628;28;20229;-68
2021/07/27 18:20:42;;;;;;;3.60;3.33;;;30.50;26.50;;;;;;10450054;28;20220;-68
2021/07/27 18:25:48;;;;;;;3.57;3.27;;;30.40;26.80;;;;;;10447710;28;20216;-68
2021/07/27 18:30:52;;;;;;;3.73;3.43;;;30.30;27.10;;;;;;10444161;28;20616;-68
2021/07/27 18:35:56;;;;;;;3.70;3.40;;;30.10;27.10;;;;;;10445732;28;20740;-68
2021/07/27 18:41:01;;;;;;;3.83;3.53;;;29.90;27.30;;;;;;10451082;28;20251;-68
2021/07/27 18:46:04;;;;;;;3.50;3.30;;;29.80;27.50;;;;;;10452743;28;20235;-68
2021/07/27 18:51:08;;;;;;;3.40;3.20;;;29.60;27.50;;;;;;10450417;28;21126;-69
2021/07/27 18:56:13;;;;;;;3.60;3.30;;;29.40;27.70;;;;;;10447247;28;20224;-69
2021/07/27 19:01:17;;;;;;;3.57;3.27;;;29.30;28.00;;;;;;10454805;28;20311;-69
2021/07/27 19:06:21;;;;;;;3.40;3.20;;;29.20;28.20;;;;;;10448886;28;20224;-72
2021/07/27 19:11:26;;;;;;;3.30;3.00;;;29.10;28.20;;;;;;10457752;28;20235;-72
2021/07/27 19:16:29;;;;;;;3.80;3.37;;;28.90;28.20;;;;;;10452659;28;20221;-72
2021/07/27 19:21:33;;;;;;;3.40;2.90;;;28.70;28.20;;;;;;10455074;28;20317;-71
2021/07/27 19:26:40;;;;;;;3.20;3.00;;;28.50;28.50;;;;;;10458868;28;20235;-71
2021/07/27 19:31:43;;;;;;;3.57;3.33;;;28.30;28.90;;;;;;10451786;28;20849;-71
2021/07/27 19:36:47;;;;;;;3.63;3.40;;;28.20;29.10;;;;;;10461056;28;20220;-71
2021/07/27 19:41:55;;;;;;;3.40;3.20;;;28.10;29.20;;;;;;10465865;28;20276;-71
2021/07/27 19:52:16;;;;;;;3.30;3.00;;;28.00;29.40;;;;;;10458599;28;20224;-72
2021/07/27 19:57:21;;;;;;;3.43;3.07;;;27.90;29.50;;;;;;10459641;28;20229;-71
2021/07/27 20:02:24;;;;;;;3.50;3.20;;;27.90;29.90;;;;;;10459243;28;20232;-72
2021/07/27 20:07:28;;;;;;;3.23;2.97;;;27.80;29.80;;;;;;10465518;28;20232;-71
2021/07/27 20:12:33;;;;;;;3.60;3.37;;;27.80;30.10;;;;;;10462632;28;20237;-72
2021/07/27 20:17:37;;;;;;;2.67;2.47;;;27.80;30.10;;;;;;10461962;28;20241;-72
2021/07/27 20:22:41;;;;;;;3.43;3.13;;;27.80;30.10;;;;;;10460437;28;20241;-71
2021/07/27 20:27:46;;;;;;;3.17;2.97;;;27.80;30.10;;;;;;10453478;28;20239;-71
2021/07/27 20:32:49;;;;;;;3.50;3.30;;;27.80;30.10;;;;;;10455488;28;21681;-71
2021/07/27 20:37:52;;;;;;;3.20;3.00;;;27.80;30.10;;;;;;10448315;28;20709;-72
2021/07/27 20:42:58;;;;;;;3.53;3.23;;;27.70;30.00;;;;;;10452922;28;20220;-72
2021/07/27 20:48:01;;;;;;;3.13;2.93;;;27.70;30.50;;;;;;10451654;28;20236;-72
2021/07/27 20:53:05;;;;;;;4.20;3.90;;;27.70;30.60;;;;;;10459393;28;20604;-72
2021/07/27 20:58:09;;;;;;;3.40;3.10;;;27.60;30.90;;;;;;10455322;28;20227;-71
2021/07/27 21:03:13;;;;;;;3.30;3.00;;;27.50;32.20;;;;;;10450160;28;20224;-71
2021/07/27 21:08:17;;;;;;;3.60;3.30;;;27.50;32.10;;;;;;10451906;28;20275;-71
2021/07/27 21:13:22;;;;;;;3.37;3.17;;;27.40;32.00;;;;;;10453349;28;20229;-71
2021/07/27 21:18:25;;;;;;;3.70;3.40;;;27.30;32.90;;;;;;10452473;28;20221;-68
2021/07/27 21:23:28;;;;;;;3.80;3.50;;;27.20;32.20;;;;;;10448639;28;20243;-68
2021/07/27 21:28:34;;;;;;;4.37;3.47;;;27.00;32.20;;;;;;10451885;28;20237;-68
2021/07/27 21:33:43;;;;;;;3.93;3.53;;;26.90;33.20;;;;;;10453244;28;20225;-68
2021/07/27 21:38:48;;;;;;;4.07;3.77;;;26.70;34.20;;;;;;10448295;28;21040;-68
2021/07/27 21:43:54;;;;;;;4.00;3.70;;;26.60;33.50;;;;;;10454168;28;20221;-68
2021/07/27 21:48:57;;;;;;;3.90;3.60;;;26.40;34.40;;;;;;10458198;28;20240;-68
2021/07/27 21:54:02;;;;;;;4.40;4.10;;;26.20;34.20;;;;;;10454586;28;20237;-68
2021/07/27 21:59:07;;;;;;;5.60;4.00;;;26.00;34.50;;;;;;10456448;28;20221;-78
2021/07/27 22:04:11;;;;;;;4.70;4.30;;;25.90;35.30;;;;;;10459475;28;20229;-78
2021/07/27 22:09:14;;;;;;;4.57;4.27;;;25.70;35.10;;;;;;10458838;28;20681;-69
2021/07/27 22:14:19;;;;;;;4.83;4.33;;;25.60;35.60;;;;;;10452594;28;20958;-69
2021/07/27 22:19:22;;;;;;;4.10;3.80;;;25.60;36.30;;;;;;10452885;28;20235;-68
2021/07/27 22:24:25;;;;;;;4.97;4.50;;;25.50;35.70;;;;;;10452641;28;20233;-68
2021/07/27 22:29:30;;;;;;;4.50;4.20;;;25.50;36.10;;;;;;10455458;28;20232;-68
2021/07/27 22:34:33;;;;;;;5.10;4.63;;;25.40;37.00;;;;;;10454429;28;20237;-68
2021/07/27 22:39:36;;;;;;;4.67;4.27;;;25.50;36.90;;;;;;10458725;28;20316;-73
2021/07/27 22:44:41;;;;;;;5.63;4.90;;;25.50;36.70;;;;;;10452617;28;20228;-73
2021/07/27 22:49:44;;;;;;;5.17;4.77;;;25.50;37.70;;;;;;10449279;28;20621;-73
2021/07/27 22:54:47;;;;;;;5.50;5.00;;;25.40;37.20;;;;;;10456601;28;20233;-73
2021/07/27 22:59:52;;;;;;;4.70;4.30;;;25.40;37.20;;;;;;10463527;28;20224;-73
2021/07/27 23:04:55;;;;;;;5.07;4.67;;;25.20;38.20;;;;;;10459966;28;20234;-73
2021/07/27 23:09:59;;;;;;;5.13;4.73;;;25.10;37.60;;;;;;10462374;28;20224;-73
2021/07/27 23:15:04;;;;;;;5.00;4.60;;;24.90;38.10;;;;;;10464503;28;20221;-72
2021/07/27 23:20:08;;;;;;;4.63;4.33;;;24.90;39.30;;;;;;10455736;28;20251;-73
2021/07/27 23:25:30;;;;;;;5.00;4.60;;;24.90;38.90;;;;;;10458882;28;20233;-72
2021/07/27 23:30:37;;;;;;;5.80;5.40;;;24.90;38.90;;;;;;10457742;28;20233;-68
2021/07/27 23:35:40;;;;;;;6.77;6.17;;;24.90;40.10;;;;;;10462689;28;20236;-68
2021/07/27 23:40:43;;;;;;;9.37;8.57;;;25.00;39.20;;;;;;10464540;28;20225;-68
2021/07/27 23:45:48;;;;;;;14.37;12.97;;;25.00;39.30;;;;;;10465492;28;20221;-68
2021/07/27 23:50:51;;;;;;;11.87;10.87;;;25.00;40.00;;;;;;10460484;28;20225;-72
2021/07/27 23:55:54;;;;;;;8.70;7.90;;;24.90;39.30;;;;;;10468458;28;20220;-72
